Time;durP1;ratioP1;P1;durP2;ratioP2;P2;SDS_P1;SDS_P2;PMS_P1;PMS_P2;Temp;Humidity;BMP_temperature;BMP_pressure;BME280_temperature;BME280_humidity;BME280_pressure;Samples;Min_cycle;Max_cycle;Signal;HPM_P1;HPM_P2
2021/09/28 00:01:18;;;;;;;11.93;5.47;;;;;;;10.67;86.31;93431.42;1724018;82;21087;-90
2021/09/28 00:03:45;;;;;;;7.37;4.67;;;;;;;10.67;86.54;93423.27;1734061;80;21050;-90
2021/09/28 00:06:12;;;;;;;8.85;4.80;;;;;;;10.67;86.64;93427.34;1764103;80;21002;-89
2021/09/28 00:08:42;;;;;;;11.57;4.50;;;;;;;10.66;86.39;93425.80;1692463;84;21148;-89
2021/09/28 00:11:12;;;;;;;10.13;4.53;;;;;;;10.65;86.42;93426.21;1743151;78;21041;-87
2021/09/28 00:13:39;;;;;;;14.63;4.42;;;;;;;10.62;86.74;93424.28;1714540;81;20990;-90
2021/09/28 00:16:06;;;;;;;8.23;4.37;;;;;;;10.62;87.16;93425.64;1714078;81;21055;-89
2021/09/28 00:18:33;;;;;;;10.55;4.45;;;;;;;10.62;86.95;93421.55;1721041;81;21111;-87
2021/09/28 00:20:59;;;;;;;12.60;4.70;;;;;;;10.61;86.88;93424.86;1755903;81;21091;-89
2021/09/28 00:23:27;;;;;;;10.10;4.67;;;;;;;10.59;86.78;93417.67;1754992;81;21037;-89
2021/09/28 00:25:54;;;;;;;6.83;4.20;;;;;;;10.57;86.82;93411.07;1762989;80;21058;-89
2021/09/28 00:28:21;;;;;;;8.40;4.58;;;;;;;10.56;87.11;93415.73;1770979;80;20938;-89
2021/09/28 00:30:48;;;;;;;13.70;5.33;;;;;;;10.56;87.11;93411.66;1774327;80;21074;-88
2021/09/28 00:33:14;;;;;;;10.23;5.37;;;;;;;10.59;86.71;93409.52;1763233;81;21874;-88
2021/09/28 00:35:41;;;;;;;8.33;4.75;;;;;;;10.60;86.74;93410.28;1759736;81;21066;-90
2021/09/28 00:38:07;;;;;;;13.03;5.50;;;;;;;10.60;87.15;93414.37;1758913;81;21008;-89
2021/09/28 00:40:35;;;;;;;9.60;4.67;;;;;;;10.60;87.37;93411.64;1737529;81;21455;-90
2021/09/28 00:43:02;;;;;;;10.23;4.90;;;;;;;10.59;87.42;93408.75;1732263;81;21046;-89
2021/09/28 00:45:29;;;;;;;10.68;5.78;;;;;;;10.60;87.54;93404.84;1736669;80;21157;-90
2021/09/28 00:47:55;;;;;;;15.43;5.00;;;;;;;10.60;87.69;93404.26;1730616;82;20983;-89
2021/09/28 00:50:23;;;;;;;17.87;5.60;;;;;;;10.61;87.78;93406.42;1763032;79;21053;-87
2021/09/28 00:52:50;;;;;;;14.55;5.70;;;;;;;10.56;87.71;93404.86;1757579;79;20997;-88
2021/09/28 00:55:16;;;;;;;7.22;5.42;;;;;;;10.53;87.73;93407.03;1727052;82;21240;-88
2021/09/28 00:57:43;;;;;;;10.82;5.40;;;;;;;10.52;87.70;93397.89;1723180;82;21200;-87
2021/09/28 01:00:12;;;;;;;7.53;4.65;;;;;;;10.52;87.70;93394.59;1727016;82;21150;-88
2021/09/28 01:02:38;;;;;;;8.33;4.78;;;;;;;10.51;88.06;93395.77;1739677;80;21032;-88
2021/09/28 01:05:07;;;;;;;11.95;6.03;;;;;;;10.50;88.48;93400.25;1732993;80;21633;-88
2021/09/28 01:07:35;;;;;;;11.00;5.35;;;;;;;10.48;88.36;93399.27;1703953;81;21603;-89
2021/09/28 01:10:02;;;;;;;15.40;5.40;;;;;;;10.49;88.24;93398.68;1749663;81;21143;-89
2021/09/28 01:12:31;;;;;;;9.00;4.47;;;;;;;10.49;88.10;93392.66;1663319;84;21078;-89
2021/09/28 01:14:58;;;;;;;10.88;5.25;;;;;;;10.51;88.19;93393.63;1683493;83;21033;-89
2021/09/28 01:17:26;;;;;;;10.28;5.00;;;;;;;10.54;88.43;93394.21;1689179;83;21207;-90
2021/09/28 01:19:53;;;;;;;11.57;4.70;;;;;;;10.53;88.37;93389.92;1709176;82;21070;-89
2021/09/28 01:22:20;;;;;;;7.87;4.83;;;;;;;10.51;88.62;93396.36;1716350;82;21111;-88
2021/09/28 01:24:48;;;;;;;12.37;5.37;;;;;;;10.49;88.64;93394.60;1671311;83;21585;-88
2021/09/28 01:27:15;;;;;;;12.58;5.33;;;;;;;10.44;89.27;93385.69;1716314;82;21008;-89
2021/09/28 01:29:43;;;;;;;8.60;4.83;;;;;;;10.44;89.54;93382.97;1738605;82;21687;-89
2021/09/28 01:32:10;;;;;;;9.08;5.22;;;;;;;10.44;89.83;93389.77;1704211;81;21036;-89
2021/09/28 01:34:37;;;;;;;8.20;5.05;;;;;;;10.45;90.12;93390.53;1697817;83;21077;-88
2021/09/28 01:37:04;;;;;;;10.32;4.60;;;;;;;10.43;90.52;93388.81;1686560;83;21024;-87
2021/09/28 01:39:30;;;;;;;8.20;4.83;;;;;;;10.38;90.99;93385.92;1756504;80;21081;-88
2021/09/28 01:41:57;;;;;;;7.42;4.67;;;;;;;10.35;91.27;93386.70;1781334;80;21121;-87
2021/09/28 01:44:23;;;;;;;7.75;5.12;;;;;;;10.34;91.47;93389.24;1761945;80;21556;-89
2021/09/28 01:46:51;;;;;;;10.35;5.37;;;;;;;10.32;91.53;93386.13;1711439;82;21143;-88
2021/09/28 01:49:20;;;;;;;11.95;5.40;;;;;;;10.34;91.34;93383.80;1732131;81;21051;-88
2021/09/28 01:51:46;;;;;;;9.15;4.72;;;;;;;10.37;91.45;93377.56;1769631;79;21054;-88
2021/09/28 01:54:14;;;;;;;13.25;5.65;;;;;;;10.37;91.39;93377.56;1695890;84;21054;-89
2021/09/28 01:56:40;;;;;;;11.35;5.40;;;;;;;10.36;90.65;93379.33;1725566;80;21015;-89
2021/09/28 01:59:09;;;;;;;12.88;5.37;;;;;;;10.35;90.45;93381.86;1731831;81;21087;-88
2021/09/28 02:01:35;;;;;;;14.23;5.33;;;;;;;10.37;90.26;93380.87;1734891;81;20954;-89
2021/09/28 02:04:02;;;;;;;10.13;5.78;;;;;;;10.40;89.69;93377.36;1710768;78;21089;-89
2021/09/28 02:06:35;;;;;;;10.00;5.10;;;;;;;10.40;89.52;93376.00;1755126;81;20987;-88
2021/09/28 02:08:59;;;;;;;9.90;4.45;;;;;;;10.40;89.46;93378.72;1674987;83;21027;-89
2021/09/28 02:11:26;;;;;;;6.85;4.22;;;;;;;10.38;89.28;93378.33;1753265;80;21197;-88
2021/09/28 02:13:53;;;;;;;6.85;4.20;;;;;;;10.38;89.16;93378.33;1744626;81;21587;-88
2021/09/28 02:16:21;;;;;;;8.60;4.70;;;;;;;10.38;88.45;93377.77;1732823;80;20985;-88
2021/09/28 02:18:49;;;;;;;8.48;4.33;;;;;;;10.39;88.21;93379.90;1764088;80;21017;-86
2021/09/28 02:21:16;;;;;;;7.28;4.42;;;;;;;10.41;88.05;93376.19;1757599;81;21113;-87
2021/09/28 02:23:42;;;;;;;10.58;4.55;;;;;;;10.41;88.05;93380.27;1752167;80;21621;-87
2021/09/28 02:26:08;;;;;;;8.53;4.85;;;;;;;10.40;88.30;93377.36;1731312;81;21025;-89
2021/09/28 02:28:35;;;;;;;13.35;7.25;;;;;;;10.35;88.98;93378.55;1724133;82;21062;-88
2021/09/28 02:31:01;;;;;;;13.95;6.70;;;;;;;10.35;89.40;93380.50;1742043;81;21130;-89
2021/09/28 02:33:28;;;;;;;11.12;5.25;;;;;;;10.35;89.96;93376.42;1734002;82;21046;-88
2021/09/28 02:35:54;;;;;;;13.35;4.95;;;;;;;10.37;90.38;93372.71;1755736;80;21179;-88
2021/09/28 02:38:21;;;;;;;13.05;5.37;;;;;;;10.39;90.50;93370.39;1772688;79;21064;-89
2021/09/28 02:40:47;;;;;;;11.70;4.70;;;;;;;10.35;90.42;93373.70;1769078;79;21575;-88
2021/09/28 02:43:14;;;;;;;8.93;5.05;;;;;;;10.28;90.75;93370.42;1721004;83;21449;-89
2021/09/28 02:45:47;;;;;;;9.43;4.95;;;;;;;10.23;91.04;93364.02;1690118;84;21042;-88
2021/09/28 02:48:10;;;;;;;11.95;5.05;;;;;;;10.18;91.44;93365.17;1725045;81;22165;-89
2021/09/28 02:50:37;;;;;;;13.53;5.17;;;;;;;10.15;91.84;93365.95;1767214;80;21054;-88
2021/09/28 02:53:03;;;;;;;11.88;5.17;;;;;;;10.13;92.18;93365.59;1770149;80;20988;-89
2021/09/28 02:55:30;;;;;;;9.83;4.78;;;;;;;10.09;92.33;93355.31;1741064;81;21050;-89
2021/09/28 02:57:58;;;;;;;9.30;4.42;;;;;;;10.04;92.21;93354.94;1763634;79;20976;-89
2021/09/28 03:00:26;;;;;;;7.97;4.30;;;;;;;10.03;92.09;93356.88;1685532;82;21122;-88
2021/09/28 03:02:52;;;;;;;8.48;4.72;;;;;;;10.07;91.51;93355.52;1683091;83;21054;-88
2021/09/28 03:05:18;;;;;;;10.40;4.87;;;;;;;10.10;90.44;93357.45;1745350;80;21061;-88
2021/09/28 03:07:45;;;;;;;9.33;5.03;;;;;;;10.12;89.59;93357.84;1736291;81;21268;-88
2021/09/28 03:10:11;;;;;;;8.50;4.22;;;;;;;10.08;89.00;93357.05;1687761;83;21455;-88
2021/09/28 03:12:38;;;;;;;10.60;4.30;;;;;;;10.06;88.59;93353.38;1686640;84;21141;-88
2021/09/28 03:15:05;;;;;;;10.03;4.42;;;;;;;10.03;88.29;93362.31;1704220;82;21073;-89
2021/09/28 03:17:34;;;;;;;7.45;4.47;;;;;;;9.99;88.46;93361.55;1679812;83;21085;-88
2021/09/28 03:20:04;;;;;;;10.20;4.58;;;;;;;9.95;88.78;93360.20;1680730;83;21645;-90
2021/09/28 03:22:32;;;;;;;10.98;4.65;;;;;;;9.94;88.99;93359.24;1733711;81;21615;-90
2021/09/28 03:24:59;;;;;;;15.60;5.17;;;;;;;9.90;89.23;93361.20;1719600;82;21868;-89
2021/09/28 03:27:25;;;;;;;8.90;5.15;;;;;;;9.85;89.94;93366.42;1687834;83;21102;-89
2021/09/28 03:29:51;;;;;;;15.83;5.47;;;;;;;9.85;90.95;93364.30;1686540;84;21531;-90
2021/09/28 03:32:18;;;;;;;8.80;4.50;;;;;;;9.86;91.46;93367.99;1697315;83;21523;-89
2021/09/28 03:34:44;;;;;;;7.08;4.67;;;;;;;9.87;91.66;93370.13;1698623;83;21048;-90
2021/09/28 03:37:11;;;;;;;12.95;5.15;;;;;;;9.87;92.00;93368.77;1659490;84;21186;-89
2021/09/28 03:39:37;;;;;;;9.88;5.08;;;;;;;9.85;92.22;93366.42;1689400;81;21094;-90
2021/09/28 03:42:05;;;;;;;9.38;4.75;;;;;;;9.79;92.61;93364.52;1686955;84;20921;-90
2021/09/28 03:44:31;;;;;;;8.68;4.78;;;;;;;9.72;92.96;93370.14;1705746;83;20976;-91
2021/09/28 03:46:58;;;;;;;8.68;4.53;;;;;;;9.69;93.38;93368.78;1720952;79;21544;-89
2021/09/28 03:49:24;;;;;;;11.45;4.92;;;;;;;9.67;93.88;93375.20;1757809;80;21599;-89
2021/09/28 03:51:51;;;;;;;7.75;4.62;;;;;;;9.68;94.31;93369.37;1687180;85;21088;-90
2021/09/28 03:54:18;;;;;;;12.85;4.85;;;;;;;9.69;94.69;93372.27;1709108;81;21145;-89
2021/09/28 03:56:44;;;;;;;17.20;7.17;;;;;;;9.71;94.89;93381.41;1696982;83;21052;-89
2021/09/28 03:59:10;;;;;;;13.13;5.70;;;;;;;9.73;94.94;93370.91;1716439;82;21143;-90
2021/09/28 04:01:37;;;;;;;9.20;4.70;;;;;;;9.71;94.76;93377.33;1740166;82;22566;-90
2021/09/28 04:04:04;;;;;;;7.50;4.28;;;;;;;9.68;94.45;93375.39;1712467;83;20976;-89
2021/09/28 04:06:31;;;;;;;9.95;3.85;;;;;;;9.63;93.88;93383.36;1700265;83;21078;-89
2021/09/28 04:08:57;;;;;;;11.48;5.10;;;;;;;9.62;93.21;93375.58;1747952;80;21081;-90
2021/09/28 04:11:23;;;;;;;8.45;4.80;;;;;;;9.61;92.68;93376.75;1753428;80;21044;-89
2021/09/28 04:13:51;;;;;;;8.00;4.40;;;;;;;9.59;92.42;93370.92;1768516;80;21181;-89
2021/09/28 04:16:19;;;;;;;8.60;4.15;;;;;;;9.54;92.03;93369.97;1722421;83;21093;-89
2021/09/28 04:18:46;;;;;;;9.53;4.00;;;;;;;9.50;91.89;93368.61;1710969;83;21487;-89
2021/09/28 04:21:13;;;;;;;6.80;4.47;;;;;;;9.45;91.79;93371.14;1743196;80;20951;-88
2021/09/28 04:23:40;;;;;;;10.32;4.60;;;;;;;9.42;91.75;93381.41;1744501;80;20956;-89
2021/09/28 04:26:07;;;;;;;6.40;3.92;;;;;;;9.37;91.50;93376.39;1736302;80;21110;-88
2021/09/28 04:28:34;;;;;;;9.25;4.58;;;;;;;9.34;91.14;93376.39;1778192;80;21511;-86
2021/09/28 04:31:01;;;;;;;7.12;4.12;;;;;;;9.29;91.17;93376.20;1739716;82;21073;-87
2021/09/28 04:33:27;;;;;;;8.70;5.10;;;;;;;9.27;90.89;93387.23;1734201;82;21545;-89
2021/09/28 04:35:54;;;;;;;8.73;4.40;;;;;;;9.21;90.61;93381.41;1724535;82;21061;-89
2021/09/28 04:38:20;;;;;;;10.20;4.62;;;;;;;9.13;90.66;93381.98;1703394;83;21145;-89
2021/09/28 04:40:47;;;;;;;6.55;4.35;;;;;;;9.09;91.11;93384.50;1740685;80;21036;-89
2021/09/28 04:43:13;;;;;;;13.38;4.65;;;;;;;9.04;91.16;93384.31;1762112;81;20995;-89
2021/09/28 04:45:40;;;;;;;11.55;4.53;;;;;;;9.00;91.36;93391.08;1786383;79;21073;-90
2021/09/28 04:48:06;;;;;;;9.95;4.65;;;;;;;8.98;91.41;93387.20;1739678;81;21058;-90
2021/09/28 04:50:33;;;;;;;9.23;5.05;;;;;;;8.91;91.54;93387.18;1746268;81;21056;-89
2021/09/28 04:53:00;;;;;;;6.92;4.62;;;;;;;8.85;91.65;93384.67;1748167;80;21222;-91
2021/09/28 04:55:27;;;;;;;7.37;4.17;;;;;;;8.81;91.91;93386.02;1752586;81;21049;-90
2021/09/28 04:57:55;;;;;;;10.82;4.30;;;;;;;8.72;92.04;93385.01;1747454;81;21023;-90
2021/09/28 05:00:21;;;;;;;12.20;5.00;;;;;;;8.66;92.34;93381.14;1723673;81;21040;-90
2021/09/28 05:02:48;;;;;;;6.45;4.85;;;;;;;8.64;92.79;93386.73;1727735;81;21879;-89
2021/09/28 05:05:14;;;;;;;10.13;6.00;;;;;;;8.63;92.85;93386.55;1723356;80;21014;-89
2021/09/28 05:07:41;;;;;;;8.13;4.75;;;;;;;8.65;93.00;93395.06;1783364;78;21101;-86
2021/09/28 05:10:08;;;;;;;7.55;4.65;;;;;;;8.66;92.70;93396.62;1779052;78;21153;-88
2021/09/28 05:12:36;;;;;;;6.12;4.12;;;;;;;8.65;92.60;93393.15;1773991;80;21049;-89
2021/09/28 05:15:04;;;;;;;6.30;5.15;;;;;;;8.68;92.73;93392.94;1757788;80;21642;-89
2021/09/28 05:17:32;;;;;;;9.00;4.25;;;;;;;8.68;92.95;93392.36;1748346;80;21085;-88
2021/09/28 05:20:01;;;;;;;12.28;5.05;;;;;;;8.70;93.01;93394.12;1725379;81;21118;-89
2021/09/28 05:22:28;;;;;;;10.45;6.20;;;;;;;8.69;93.13;93392.58;1718640;81;21090;-90
2021/09/28 05:24:57;;;;;;;9.88;5.17;;;;;;;8.69;93.12;93391.22;1754736;81;21023;-90
2021/09/28 05:27:25;;;;;;;7.00;4.25;;;;;;;8.69;93.15;93394.52;1729984;81;21455;-89
2021/09/28 05:29:51;;;;;;;9.58;4.83;;;;;;;8.68;93.24;93395.66;1729008;82;21085;-89
2021/09/28 05:32:17;;;;;;;7.75;4.35;;;;;;;8.68;93.36;93393.71;1738235;80;21153;-89
2021/09/28 05:34:44;;;;;;;6.92;4.37;;;;;;;8.71;93.39;93388.89;1777185;79;21073;-89
2021/09/28 05:37:10;;;;;;;12.65;5.33;;;;;;;8.73;93.07;93391.23;1766026;79;21039;-88
2021/09/28 05:39:37;;;;;;;6.15;4.08;;;;;;;8.75;93.01;93393.73;1769915;79;21122;-89
2021/09/28 05:42:04;;;;;;;9.25;4.55;;;;;;;8.84;92.78;93396.66;1768993;80;21121;-91
2021/09/28 05:44:33;;;;;;;7.87;4.10;;;;;;;8.96;92.85;93400.37;1770839;79;21129;-87
2021/09/28 05:47:02;;;;;;;9.25;5.05;;;;;;;9.08;92.54;93401.36;1773297;79;21054;-87
2021/09/28 05:49:28;;;;;;;4.75;3.85;;;;;;;9.20;92.39;93398.85;1777156;78;20969;-88
2021/09/28 05:51:56;;;;;;;9.23;5.42;;;;;;;9.29;91.76;93403.33;1709520;81;21852;-88
2021/09/28 05:54:23;;;;;;;15.05;5.58;;;;;;;9.36;91.33;93401.95;1680546;83;21056;-86
2021/09/28 05:56:53;;;;;;;8.35;5.72;;;;;;;9.42;90.81;93405.07;1696377;81;21081;-87
2021/09/28 05:59:20;;;;;;;10.82;6.28;;;;;;;9.47;90.46;93405.45;1726707;80;21151;-87
2021/09/28 06:01:49;;;;;;;7.22;4.70;;;;;;;9.52;90.07;93404.30;1750318;80;21734;-88
2021/09/28 06:04:15;;;;;;;8.43;4.62;;;;;;;9.54;89.78;93402.55;1719201;81;21114;-88
2021/09/28 06:06:43;;;;;;;7.20;4.58;;;;;;;9.59;89.82;93397.52;1691792;83;21109;-88
2021/09/28 06:09:12;;;;;;;7.53;4.58;;;;;;;9.66;89.81;93402.14;1687738;84;21050;-88
2021/09/28 06:11:40;;;;;;;5.78;4.40;;;;;;;9.71;89.83;93404.48;1694497;84;21155;-88
2021/09/28 06:16:38;;;;;;;7.65;4.15;;;;;;;9.75;89.47;93413.98;1715171;82;21728;-89
2021/09/28 06:19:07;;;;;;;12.28;5.10;;;;;;;9.74;89.39;93417.26;1724064;81;21116;-89
2021/09/28 06:21:37;;;;;;;7.40;4.55;;;;;;;9.77;89.41;93413.77;1744113;81;21092;-90
2021/09/28 06:24:04;;;;;;;9.18;4.53;;;;;;;9.81;89.27;93413.77;1712467;82;21077;-88
2021/09/28 06:26:31;;;;;;;5.20;4.40;;;;;;;9.80;89.34;93414.94;1725156;80;21075;-87
2021/09/28 06:28:59;;;;;;;8.60;4.45;;;;;;;9.79;89.22;93410.09;1740090;82;21459;-89
2021/09/28 06:31:26;;;;;;;10.43;4.87;;;;;;;9.78;89.15;93415.90;1719273;82;21012;-87
2021/09/28 06:33:53;;;;;;;10.78;4.90;;;;;;;9.76;89.36;93416.30;1725690;81;21032;-89
2021/09/28 06:36:19;;;;;;;7.33;5.00;;;;;;;9.75;89.49;93412.05;1696907;83;21017;-88
2021/09/28 06:38:46;;;;;;;8.85;4.50;;;;;;;9.75;89.58;93412.05;1726384;79;21021;-88
2021/09/28 06:41:12;;;;;;;8.55;5.08;;;;;;;9.76;89.76;93418.25;1735918;79;21155;-90
2021/09/28 06:43:38;;;;;;;9.98;5.03;;;;;;;9.77;89.80;93421.92;1712795;81;21916;-89
2021/09/28 06:46:06;;;;;;;11.12;5.45;;;;;;;9.80;90.09;93420.38;1740716;79;21060;-87
2021/09/28 06:48:33;;;;;;;8.68;4.65;;;;;;;9.86;90.00;93420.95;1764328;80;21061;-89
2021/09/28 06:50:59;;;;;;;10.72;5.30;;;;;;;9.90;89.95;93419.01;1767266;80;21371;-90
2021/09/28 06:53:25;;;;;;;11.43;6.80;;;;;;;9.93;89.72;93419.59;1768028;79;21115;-88
2021/09/28 06:55:52;;;;;;;9.23;5.20;;;;;;;9.95;89.39;93425.39;1766747;79;21710;-89
2021/09/28 06:58:20;;;;;;;9.53;4.83;;;;;;;9.95;89.30;93425.39;1737892;80;21129;-87
2021/09/28 07:00:47;;;;;;;6.22;4.62;;;;;;;9.96;89.47;93420.73;1767087;79;21553;-88
2021/09/28 07:03:16;;;;;;;9.75;4.90;;;;;;;9.98;89.72;93420.54;1767291;79;21085;-87
2021/09/28 07:05:44;;;;;;;8.38;5.53;;;;;;;10.05;89.25;93417.05;1722156;80;21771;-88
2021/09/28 07:08:12;;;;;;;9.38;5.60;;;;;;;10.12;88.68;93421.69;1764906;79;21127;-89
2021/09/28 07:10:41;;;;;;;7.80;4.78;;;;;;;10.17;88.97;93419.92;1765271;79;21081;-88
2021/09/28 07:13:09;;;;;;;9.50;4.95;;;;;;;10.22;88.82;93422.23;1766215;79;21054;-87
2021/09/28 07:15:35;;;;;;;8.23;4.97;;;;;;;10.24;88.61;93419.91;1763575;79;21405;-88
2021/09/28 07:18:04;;;;;;;8.28;4.20;;;;;;;10.27;88.51;93419.16;1765180;79;21188;-87
2021/09/28 07:20:31;;;;;;;9.10;5.67;;;;;;;10.30;88.61;93426.50;1764829;79;21057;-87
2021/09/28 07:22:58;;;;;;;10.53;6.08;;;;;;;10.31;88.63;93430.80;1731096;80;21047;-89
2021/09/28 07:25:25;;;;;;;11.63;5.80;;;;;;;10.32;88.53;93432.92;1694803;81;21086;-88
2021/09/28 07:27:57;;;;;;;7.62;5.17;;;;;;;10.35;88.53;93436.98;1680070;84;21605;-86
2021/09/28 07:30:21;;;;;;;8.83;5.83;;;;;;;10.39;88.37;93436.98;1692333;82;21093;-87
2021/09/28 07:32:48;;;;;;;11.38;5.95;;;;;;;10.42;88.26;93446.48;1687551;82;21047;-88
2021/09/28 07:35:15;;;;;;;11.60;6.20;;;;;;;10.43;87.90;93437.74;1732223;82;21104;-88
2021/09/28 07:37:43;;;;;;;12.50;5.95;;;;;;;10.42;87.70;93439.69;1709817;78;21115;-88
2021/09/28 07:40:10;;;;;;;10.03;6.60;;;;;;;10.41;87.80;93446.86;1718283;82;21036;-89
2021/09/28 07:42:38;;;;;;;9.53;6.42;;;;;;;10.38;87.99;93446.28;1716704;81;21654;-87
2021/09/28 07:45:06;;;;;;;11.85;6.65;;;;;;;10.38;88.27;93449.80;1685372;82;21733;-89
2021/09/28 07:47:34;;;;;;;8.20;5.28;;;;;;;10.38;88.33;93449.80;1679049;84;21321;-88
2021/09/28 07:50:03;;;;;;;12.80;5.42;;;;;;;10.40;88.44;93454.25;1722681;81;21104;-88
2021/09/28 07:52:30;;;;;;;31.57;8.05;;;;;;;10.41;88.36;93455.02;1695986;82;21163;-86
2021/09/28 07:54:58;;;;;;;14.10;6.40;;;;;;;10.39;88.44;93456.78;1736107;81;21104;-87
2021/09/28 07:57:25;;;;;;;10.28;6.28;;;;;;;10.39;88.22;93465.52;1738651;80;21056;-88
2021/09/28 07:59:53;;;;;;;11.65;7.25;;;;;;;10.39;88.29;93458.14;1735633;80;21094;-87
2021/09/28 08:02:23;;;;;;;14.70;7.10;;;;;;;10.39;88.34;93458.14;1680407;84;21091;-87
2021/09/28 08:04:49;;;;;;;13.83;7.30;;;;;;;10.38;88.52;93456.59;1742438;81;21046;-87
2021/09/28 08:07:17;;;;;;;10.03;6.45;;;;;;;10.39;88.70;93460.86;1739164;80;21621;-87
2021/09/28 08:09:44;;;;;;;11.22;7.05;;;;;;;10.40;88.91;93461.05;1726599;80;21716;-88
2021/09/28 08:12:12;;;;;;;12.15;6.30;;;;;;;10.44;89.21;93465.11;1750701;80;21133;-87
2021/09/28 08:14:39;;;;;;;10.80;5.87;;;;;;;10.51;89.23;93464.32;1726874;81;21090;-86
2021/09/28 08:17:05;;;;;;;9.13;6.12;;;;;;;10.60;89.39;93465.44;1750772;80;21080;-89
2021/09/28 08:19:33;;;;;;;6.53;5.20;;;;;;;10.69;89.55;93466.40;1708524;81;21153;-89
2021/09/28 08:22:00;;;;;;;6.53;4.83;;;;;;;10.78;88.67;93464.02;1735131;80;21046;-90
2021/09/28 08:24:30;;;;;;;12.00;5.28;;;;;;;10.85;88.24;93465.95;1749355;80;21046;-88
2021/09/28 08:29:40;;;;;;;6.83;5.40;;;;;;;11.00;87.64;93473.46;1786904;78;21491;-87
2021/09/28 08:32:07;;;;;;;8.73;5.35;;;;;;;11.03;86.61;93476.16;1722202;80;21646;-87
2021/09/28 08:34:34;;;;;;;9.68;5.37;;;;;;;11.05;86.31;93477.89;1711976;81;21069;-87
2021/09/28 08:37:04;;;;;;;11.63;6.00;;;;;;;11.06;85.82;93480.82;1699919;81;21057;-87
2021/09/28 08:39:31;;;;;;;8.20;5.62;;;;;;;11.05;85.00;93481.97;1744897;80;21085;-88
2021/09/28 08:41:59;;;;;;;;;;;;;;;;;;;;;
2021/09/28 08:44:26;;;;;;;11.12;6.17;;;;;;;10.92;84.92;93487.09;1713707;81;21089;-89
2021/09/28 08:46:52;;;;;;;10.00;5.95;;;;;;;10.87;84.76;93489.43;1724552;81;21057;-89
2021/09/28 08:49:20;;;;;;;12.43;7.00;;;;;;;10.80;84.36;93499.77;1779032;79;21056;-86
2021/09/28 08:51:47;;;;;;;8.60;6.08;;;;;;;10.73;84.94;93494.95;1709699;81;21109;-87
2021/09/28 08:54:15;;;;;;;8.35;5.50;;;;;;;10.71;84.42;93508.92;1705828;82;21079;-88
2021/09/28 08:56:42;;;;;;;7.00;5.62;;;;;;;10.64;84.07;93508.38;1754131;79;21110;-89
2021/09/28 08:59:13;;;;;;;20.48;6.70;;;;;;;10.57;84.67;93508.95;1770905;79;21121;-88
2021/09/28 09:01:57;;;;;;;10.20;5.50;;;;;;;10.53;84.34;93505.47;1749425;80;21009;-86
2021/09/28 09:04:26;;;;;;;7.35;5.85;;;;;;;10.47;83.72;93514.63;1767951;80;21222;-86
2021/09/28 09:06:54;;;;;;;7.53;5.58;;;;;;;10.42;83.72;93524.55;1719496;81;21125;-87
2021/09/28 09:09:22;;;;;;;8.35;5.15;;;;;;;10.35;83.70;93519.12;1769474;80;21773;-88
2021/09/28 09:11:50;;;;;;;7.87;5.20;;;;;;;10.30;84.07;93524.93;1750217;79;21027;-87
2021/09/28 09:14:19;;;;;;;9.15;5.17;;;;;;;10.27;84.46;93524.34;1775916;78;21261;-86
2021/09/28 09:16:48;;;;;;;7.17;4.75;;;;;;;10.25;84.63;93530.74;1770443;79;21075;-88
2021/09/28 09:19:26;;;;;;;9.53;5.22;;;;;;;10.19;84.15;93525.70;1774297;80;21053;-88
2021/09/28 09:21:55;;;;;;;9.98;5.50;;;;;;;10.14;84.17;93528.80;1715223;81;21163;-88
2021/09/28 09:24:48;;;;;;;9.00;5.85;;;;;;;10.12;84.56;93527.07;1746039;80;21510;-88
2021/09/28 09:27:31;;;;;;;7.28;5.60;;;;;;;10.08;84.53;93533.09;1766271;79;21069;-87
2021/09/28 09:30:15;;;;;;;7.75;5.47;;;;;;;10.01;84.18;93543.95;1751165;80;21041;-87
2021/09/28 09:32:56;;;;;;;9.57;7.33;;;;;;;9.95;84.67;93537.34;1751585;80;21101;-85
2021/09/28 09:35:32;;;;;;;7.28;5.60;;;;;;;9.93;84.88;93546.48;1722886;80;21337;-89
2021/09/28 09:38:13;;;;;;;9.03;5.90;;;;;;;9.79;84.34;93550.53;1747260;80;21044;-89
2021/09/28 09:40:46;;;;;;;9.23;6.20;;;;;;;9.79;84.34;93550.53;1759399;80;21096;-89
2021/09/28 09:43:17;;;;;;;8.65;6.20;;;;;;;9.71;84.78;93554.59;1745696;81;21085;-88
2021/09/28 09:45:43;;;;;;;10.23;7.08;;;;;;;9.66;84.71;93551.47;1715362;83;21164;-86
2021/09/28 09:48:23;;;;;;;12.63;7.75;;;;;;;9.59;85.28;93556.88;1712534;81;21735;-89
2021/09/28 09:50:57;;;;;;;11.35;6.92;;;;;;;9.54;85.52;93558.63;1727579;81;21082;-88
2021/09/28 09:53:24;;;;;;;11.88;6.53;;;;;;;9.53;85.74;93570.08;1693067;82;22239;-88
2021/09/28 09:55:50;;;;;;;13.45;6.53;;;;;;;9.51;85.42;93577.03;1697758;81;21087;-89
2021/09/28 09:58:17;;;;;;;13.28;7.92;;;;;;;9.47;85.62;93578.38;1752573;80;21113;-88
2021/09/28 10:00:43;;;;;;;8.93;6.00;;;;;;;9.47;86.00;93577.03;1754671;81;21624;-88
2021/09/28 10:03:10;;;;;;;7.40;6.45;;;;;;;9.45;86.00;93578.78;1730865;81;21567;-88
2021/09/28 10:05:36;;;;;;;11.60;5.95;;;;;;;9.42;85.82;93574.11;1721224;81;21683;-87
2021/09/28 10:08:08;;;;;;;8.43;6.17;;;;;;;9.39;86.06;93578.94;1695054;81;21030;-87
2021/09/28 10:10:34;;;;;;;10.25;6.17;;;;;;;9.37;86.33;93575.85;1707461;81;21169;-87
2021/09/28 10:13:00;;;;;;;10.78;6.40;;;;;;;9.38;86.72;93588.84;1699547;81;21763;-87
2021/09/28 10:15:29;;;;;;;14.40;6.10;;;;;;;9.37;86.28;93577.20;1755018;81;21070;-87
2021/09/28 10:17:56;;;;;;;11.33;5.45;;;;;;;9.39;86.25;93587.67;1770589;80;21100;-87
2021/09/28 10:20:26;;;;;;;12.78;6.45;;;;;;;9.38;86.27;93586.90;1768441;80;21370;-88
2021/09/28 10:23:15;;;;;;;10.60;7.55;;;;;;;9.35;86.22;93588.23;1773972;79;21135;-87
2021/09/28 10:25:46;;;;;;;10.13;7.20;;;;;;;9.33;86.57;93588.64;1769360;80;20968;-88
2021/09/28 10:28:20;;;;;;;8.75;6.42;;;;;;;9.31;86.69;93593.66;1715553;82;21108;-88
2021/09/28 10:30:46;;;;;;;15.78;7.58;;;;;;;9.30;86.74;93589.39;1720379;81;21537;-86
2021/09/28 10:33:31;;;;;;;12.75;6.83;;;;;;;9.28;86.70;93594.41;1715537;81;21054;-88
2021/09/28 10:36:11;;;;;;;12.10;6.75;;;;;;;9.24;86.49;93594.40;1744897;79;21046;-88
2021/09/28 10:38:53;;;;;;;13.18;7.22;;;;;;;9.23;86.84;93596.15;1718958;82;21923;-88
2021/09/28 10:41:39;;;;;;;9.93;6.80;;;;;;;9.20;87.03;93603.69;1743865;79;21115;-89
2021/09/28 10:44:39;;;;;;;9.88;6.67;;;;;;;9.18;87.19;93605.44;1721613;82;21119;-88
2021/09/28 10:47:06;;;;;;;11.35;7.05;;;;;;;9.19;87.57;93599.43;1720256;81;21045;-88
2021/09/28 10:49:36;;;;;;;15.58;7.35;;;;;;;9.17;87.17;93605.22;1744372;80;20997;-87
2021/09/28 10:52:26;;;;;;;13.98;8.08;;;;;;;9.11;87.53;93609.48;1780740;80;21185;-88
2021/09/28 10:55:13;;;;;;;13.22;8.10;;;;;;;9.08;87.39;93615.66;1753135;80;21603;-88
2021/09/28 11:00:11;;;;;;;14.73;8.28;;;;;;;9.06;87.94;93624.73;1717969;83;21057;-88
2021/09/28 11:02:56;;;;;;;12.25;8.55;;;;;;;9.03;87.80;93624.16;1710510;82;21089;-86
2021/09/28 11:05:35;;;;;;;13.03;8.93;;;;;;;8.99;87.93;93616.59;1722317;81;21864;-88
2021/09/28 11:08:02;;;;;;;14.47;8.10;;;;;;;8.99;87.83;93617.36;1750592;80;21491;-88
2021/09/28 11:10:32;;;;;;;12.07;8.05;;;;;;;9.02;88.08;93619.88;1737140;81;21045;-88
2021/09/28 11:12:58;;;;;;;12.37;7.45;;;;;;;9.03;88.15;93616.58;1764991;79;21619;-89
2021/09/28 11:15:27;;;;;;;21.62;8.23;;;;;;;9.06;88.13;93616.59;1778653;78;21073;-90
2021/09/28 11:17:55;;;;;;;16.55;8.83;;;;;;;9.08;87.85;93622.44;1763362;80;21053;-89
2021/09/28 11:20:25;;;;;;;9.83;6.85;;;;;;;9.10;88.04;93616.63;1751825;78;21576;-88
2021/09/28 11:22:55;;;;;;;11.48;7.28;;;;;;;9.08;87.98;93621.66;1768340;79;21065;-88
2021/09/28 11:25:22;;;;;;;13.25;7.40;;;;;;;9.06;88.11;93627.45;1767444;78;21078;-88
2021/09/28 11:30:22;;;;;;;14.35;7.92;;;;;;;9.09;88.10;93615.84;1786711;78;21142;-87
2021/09/28 11:33:01;;;;;;;17.60;8.53;;;;;;;9.10;88.23;93622.05;1773516;79;21106;-89
2021/09/28 11:35:28;;;;;;;12.33;7.37;;;;;;;9.11;87.99;93622.27;1746927;80;21649;-88
2021/09/28 11:38:02;;;;;;;20.15;8.43;;;;;;;9.13;88.05;93623.42;1740580;80;21033;-89
2021/09/28 11:40:37;;;;;;;12.03;7.30;;;;;;;9.17;87.79;93616.66;1698200;81;21091;-88
2021/09/28 11:43:27;;;;;;;21.23;8.63;;;;;;;9.14;87.89;93622.28;1694144;83;21121;-87
2021/09/28 11:46:02;;;;;;;16.42;7.87;;;;;;;9.10;87.64;93621.48;1766116;79;21065;-88
2021/09/28 11:48:44;;;;;;;15.63;8.63;;;;;;;9.06;87.86;93626.09;1764846;78;21331;-86
2021/09/28 11:51:24;;;;;;;14.33;7.40;;;;;;;9.08;88.21;93629.22;1749996;78;21097;-87